METAR Data
IDs: Format: Raw Decoded Include TAF

Data at: 0853 UTC 13 Aug 2022

ZPPP 130800Z 27003MPS 220V340 9999 FEW026TCU SCT026 26/16 Q1017 NOSIG